Details From EGMC - Southend
To EGSC - Cambridge
Flight Number -
Tags Novice Generated
Created
Modified
Stats Distance 51 nm / 94 km
Max Altitude 100 ft / 30 m
Waypoints 5
Social Downloads 8
Likes 0
Share VATSIM

Download

Looking for another format? Having issues loading an existing format? Contact us
Advertisement - Login to hide

Notes

Departing runway 5 EGMC. Arriving runway 4 EGSC.

Route

EGMC +51.62_+000.80 +51.89_+000.44 +52.15_+000.07 EGSC

ID Type Via Altitude Latitude Longitude Leg Dist Tot Dist Heading (true) Name
O EGMC APT - 0 ft / 0 m 51.57563˚ 0.70500˚ - 0 nm - -
+51.62_+000.80 LATLON - 100 ft / 30 m 51.61787˚ 0.79959˚ 4 nm 4 nm 54° / 54° -
+51.89_+000.44 LATLON - 100 ft / 30 m 51.88519˚ 0.43679˚ 20 nm 25 nm 320° / 320° -
+52.15_+000.07 LATLON - 100 ft / 30 m 52.15251˚ 0.07400˚ 20 nm 46 nm 320° / 320° -
O EGSC APT - 0 ft / 0 m 52.19930˚ 0.16402˚ 4 nm 50 nm 50° / 50° -

Altitude Profile

Advertisement - Login to hide

EGMC

Details ICAO EGMC (SEN)
Name Southend
Region United Kingdom
Timezone Europe/London (UTC+1.0)
Stats Elevation 49 ft / 15 m (AMSL)
Location 51.571443° 0.695583°
Runways 1
Magnetic Variation 0.106° W

METAR

EGMC 251620Z 01004KT 340V050 8000 BKN022 19/14 Q1017

Decode

TAF

Not found

Departure Runways

ID Width Length Bearing (true) Bearing (mag) Surface Threshold Offset Overrun Length
06 121 ft / 37 m 5,230 ft / 1,594 m 54.10° 54.21° Asphalt 558 ft / 170 m 0 ft / 0 m
24 121 ft / 37 m 5,230 ft / 1,594 m 234.11° 234.22° Asphalt 466 ft / 142 m 0 ft / 0 m

EGSC

Details ICAO EGSC (CBG)
Name Cambridge
Region United Kingdom
Timezone Europe/London (UTC+1.0)
Stats Elevation 47 ft / 14 m (AMSL)
Location 52.204476° 0.176450°
Runways 3
Magnetic Variation 0.351° W

METAR

EGSC 251620Z 20004KT 160V240 8000 BKN012 17/14 Q1018

Decode

TAF

Not found

Destination Runways

ID Width Length Bearing (true) Bearing (mag) Surface Threshold Offset Overrun Length
05 151 ft / 46 m 6,417 ft / 1,956 m 49.79° 50.14° Asphalt 692 ft / 211 m 0 ft / 0 m
05R 115 ft / 35 m 2,947 ft / 898 m 49.84° 50.19° Grass 0 ft / 0 m 0 ft / 0 m
10 115 ft / 35 m 2,290 ft / 698 m 99.91° 100.26° Grass 0 ft / 0 m 0 ft / 0 m
23 151 ft / 46 m 6,417 ft / 1,956 m 229.81° 230.16° Asphalt 469 ft / 143 m 0 ft / 0 m
23L 115 ft / 35 m 2,947 ft / 898 m 229.85° 230.20° Grass 0 ft / 0 m 0 ft / 0 m
28 115 ft / 35 m 2,290 ft / 698 m 279.91° 280.26° Grass 0 ft / 0 m 0 ft / 0 m

Approach Navaids

Runway Type Ident Frequency Range Bearing (true) Bearing (mag) Slope Elevation
23 Localiser ICMG 111.30 MHz 18 nm / 33 km 229.81° 230.16° - 47 ft / 14 m (AMSL)
23 Glidescope ICMG 111.30 MHz 10 nm / 19 km 229.80° 230.15° 3.00° 40 ft / 12 m (AMSL)
23 DME ICMG 111.30 MHz 18 nm / 33 km - - - 60 ft / 18 m (AMSL)

Popular Alternatives